Decoded Metar for PAMO (MOUNTAIN VILLAGE in AK, USA) (IATA:MOU) | Meteo·Mobile Aviation Weather
aviador You're here:

PAMO Decoded Metar

MOUNTAIN VILLAGE in AK, USA
Report Time2018-09-18 13:02:00
UTC Time2018-09-18 13:24:10
Flight Rules vfr VFR
Wind280° at 07 kt
W.Decomp.*RWY 20: 2.8 kt HW 6.4 kt RCW
W.Rank280° ranks 30
Current wind is below 280° avg. (9.3)
Visibility9999 m
Phenomena:N/A
Clouds:N/A
Expected CloudBase > 400 ft AGL from Temp-Dew spread
CeilingNone
Temp07°C (ISA -7)
Dew Point06°C (93% RH)
AAT3.5°C
QNH1024 hPa
Density Alt-787 ft
Elevation338 ft
Report Wrong Elevation
Raw Report
PAMO 181302Z AUTO 28007KT 9SM CLR 07/06 A3023 RMK AO2 SLP241
T00670061=

Extra information for PAMO:More info

Metar Taf Metar & Taf Last 4 Metars F.Rules Stats Wind Profile Meteogram Temp Stats Airport Information Weather charts Add Link Nearby VenuesMetar ALERT Operation Metar Decoded Social comments

AIRNAV info for PAMO